Terminal Aerodrome Forecast
Issued by NWS Cleveland, OH

Home | Current Version | Previous Version | Graphics & Text | Print | Product List | Glossary On
Versions: 1 2 3 4 5 6 7 8 9 10 11 12 13 14 15 16 17 18 19 20 21 22 23 24 25 26 27 28 29 30 31 32 33 34 35 36
000
FTUS41 KCLE 221400 AAA
TAFYNG
TAF AMD
KYNG 221406Z 2214/2312 VRB04KT 4SM BR VCSH SCT005 BKN050
      TEMPO 2214/2215 3SM -RA BR BKN005 OVC050
     FM221500 VRB03KT P6SM VCSH SCT015 BKN035
     FM222000 VRB03KT P6SM VCTS SCT025 OVC035CB
     FM230200 VRB03KT 6SM BR SCT035 BKN150
     FM230700 08002KT 1/2SM FG BKN002=

USA.gov is the U.S. government's official web portal to all federal, state and local government web resources and services.